createdAt,value
2023-03-22T00:01:32.281Z,25.43
2023-03-22T00:04:01.948Z,25.38
2023-03-22T00:06:31.946Z,25.32
2023-03-22T00:09:01.786Z,25.27
2023-03-22T00:11:31.462Z,25.17
2023-03-22T00:14:01.912Z,25.12
2023-03-22T00:16:31.520Z,25.03
2023-03-22T00:19:01.561Z,25.02
2023-03-22T00:21:31.052Z,24.98
2023-03-22T00:24:00.518Z,24.99
2023-03-22T00:26:30.462Z,24.93
2023-03-22T00:28:59.972Z,24.87
2023-03-22T00:31:29.514Z,24.75
2023-03-22T00:33:59.524Z,24.81
2023-03-22T00:36:29.091Z,24.80
2023-03-22T00:38:58.589Z,24.86
2023-03-22T00:41:28.557Z,24.84
2023-03-22T00:43:58.077Z,24.78
2023-03-22T00:46:28.309Z,24.74
2023-03-22T00:48:58.533Z,24.72
2023-03-22T00:51:28.358Z,24.72
2023-03-22T00:53:58.394Z,24.66
2023-03-22T00:56:29.969Z,24.68
2023-03-22T00:59:07.514Z,24.58
2023-03-22T01:01:37.838Z,24.52
2023-03-22T01:04:09.373Z,24.45
2023-03-22T01:06:38.985Z,24.50
2023-03-22T01:09:09.121Z,24.57
2023-03-22T01:11:40.030Z,24.62
2023-03-22T01:14:10.837Z,24.69
2023-03-22T01:16:40.850Z,24.70
2023-03-22T01:19:10.377Z,24.72
2023-03-22T01:21:40.404Z,24.78
2023-03-22T01:24:09.859Z,24.78
2023-03-22T01:26:40.118Z,24.71
2023-03-22T01:29:09.468Z,24.63
2023-03-22T01:31:39.261Z,24.69
2023-03-22T01:34:09.229Z,24.66
2023-03-22T01:36:38.880Z,24.69
2023-03-22T01:39:09.293Z,24.81
2023-03-22T01:41:40.051Z,25.05
2023-03-22T01:44:20.219Z,25.16
2023-03-22T01:46:52.464Z,25.22
2023-03-22T01:49:30.039Z,25.19
2023-03-22T01:52:08.176Z,25.18
2023-03-22T01:54:56.149Z,25.12
2023-03-22T01:57:38.782Z,25.16
2023-03-22T02:00:16.448Z,25.05
2023-03-22T02:03:08.237Z,24.94
2023-03-22T02:05:43.225Z,25.00
2023-03-22T02:08:16.158Z,24.76
2023-03-22T02:11:00.666Z,24.54
2023-03-22T02:13:40.423Z,24.15
2023-03-22T02:16:54.592Z,23.94
2023-03-22T02:19:48.135Z,23.84
2023-03-22T02:22:40.295Z,23.75
2023-03-22T02:25:34.837Z,23.66
2023-03-22T02:28:22.580Z,23.69
2023-03-22T02:31:19.568Z,23.65
2023-03-22T02:33:54.750Z,23.62
2023-03-22T02:36:55.446Z,23.48
2023-03-22T02:39:44.416Z,23.38
2023-03-22T02:42:39.635Z,23.35
2023-03-22T02:45:47.426Z,23.34
2023-03-22T02:48:43.145Z,23.32
2023-03-22T02:51:22.885Z,23.33
2023-03-22T02:54:12.292Z,23.28
2023-03-22T02:56:44.252Z,23.25
2023-03-22T02:59:15.172Z,23.32
2023-03-22T03:01:50.649Z,23.46
2023-03-22T03:04:29.859Z,23.57
2023-03-22T03:07:10.549Z,23.68
2023-03-22T03:09:43.318Z,23.87
2023-03-22T03:12:22.785Z,24.04
2023-03-22T03:14:55.897Z,24.08
2023-03-22T03:17:39.303Z,24.14
2023-03-22T03:20:50.619Z,24.26
2023-03-22T03:23:30.642Z,24.08
2023-03-22T03:26:08.550Z,23.90
2023-03-22T03:28:44.425Z,23.79
2023-03-22T03:31:33.482Z,23.68
2023-03-22T03:34:35.259Z,23.50
2023-03-22T03:37:15.983Z,23.33
2023-03-22T03:39:52.702Z,23.20
2023-03-22T03:42:26.889Z,23.20
2023-03-22T03:44:58.369Z,23.20
2023-03-22T03:47:30.894Z,23.05
2023-03-22T03:50:00.405Z,22.97
2023-03-22T03:52:30.500Z,22.86
2023-03-22T03:55:00.395Z,22.78
2023-03-22T03:57:34.246Z,22.68
2023-03-22T04:00:05.406Z,22.58
2023-03-22T04:02:57.199Z,22.52
2023-03-22T04:05:45.883Z,22.53
2023-03-22T04:08:16.691Z,22.52
2023-03-22T04:10:51.946Z,22.59
2023-03-22T04:13:25.767Z,22.53
2023-03-22T04:16:03.194Z,22.46
2023-03-22T04:18:36.987Z,22.43
2023-03-22T04:21:09.797Z,22.39
2023-03-22T04:23:52.748Z,22.37
2023-03-22T04:26:22.828Z,22.29
2023-03-22T04:29:33.275Z,22.21
2023-03-22T04:32:23.989Z,22.18
2023-03-22T04:34:55.176Z,22.14
2023-03-22T04:37:32.653Z,22.13
2023-03-22T04:40:23.141Z,22.20
2023-03-22T04:43:05.988Z,22.13
2023-03-22T04:45:59.427Z,22.21
2023-03-22T04:48:34.729Z,22.25
2023-03-22T04:51:10.928Z,22.29
2023-03-22T04:53:48.150Z,22.24
2023-03-22T04:56:18.294Z,22.23
2023-03-22T04:58:50.690Z,22.26
2023-03-22T05:01:20.827Z,22.30
2023-03-22T05:03:57.341Z,22.27
2023-03-22T05:06:28.188Z,22.25
2023-03-22T05:09:05.079Z,22.20
2023-03-22T05:11:35.083Z,22.18
2023-03-22T05:14:21.341Z,22.10
2023-03-22T05:16:51.262Z,22.06
2023-03-22T05:19:23.525Z,22.09
2023-03-22T05:21:59.216Z,22.08
2023-03-22T05:24:41.882Z,22.07
2023-03-22T05:27:15.681Z,22.05
2023-03-22T05:29:47.838Z,22.11
2023-03-22T05:32:26.668Z,22.11
2023-03-22T05:34:57.844Z,22.18
2023-03-22T05:37:36.241Z,22.16
2023-03-22T05:40:12.361Z,22.18
2023-03-22T05:42:46.668Z,22.13
2023-03-22T05:45:22.209Z,22.20
2023-03-22T05:48:03.483Z,22.18
2023-03-22T05:50:34.675Z,22.16
2023-03-22T05:53:05.198Z,22.26
2023-03-22T05:55:43.736Z,22.34
2023-03-22T05:58:14.075Z,22.26
2023-03-22T06:00:44.248Z,22.19
2023-03-22T06:03:24.494Z,22.08
2023-03-22T06:06:11.992Z,22.08
2023-03-22T06:08:56.412Z,21.98
2023-03-22T06:11:29.223Z,21.99
2023-03-22T06:13:59.474Z,22.12
2023-03-22T06:16:38.010Z,22.17
2023-03-22T06:19:08.026Z,22.19
2023-03-22T06:21:38.164Z,22.29
2023-03-22T06:24:07.729Z,22.40
2023-03-22T06:26:37.315Z,22.55
2023-03-22T06:29:06.618Z,22.60
2023-03-22T06:31:36.948Z,22.47
2023-03-22T06:34:08.502Z,22.52
2023-03-22T06:36:42.211Z,22.51
2023-03-22T06:39:26.963Z,22.71
2023-03-22T06:41:56.900Z,22.77
2023-03-22T06:44:26.272Z,22.83
2023-03-22T06:46:55.680Z,22.90
2023-03-22T06:49:43.464Z,23.00
2023-03-22T06:52:18.891Z,23.01
2023-03-22T06:54:49.084Z,22.98
2023-03-22T06:57:19.017Z,22.98
2023-03-22T06:59:48.757Z,22.96
2023-03-22T07:02:18.226Z,22.93
2023-03-22T07:05:08.308Z,22.94
2023-03-22T07:07:38.408Z,22.96
2023-03-22T07:10:09.363Z,22.99
2023-03-22T07:12:39.363Z,23.03
2023-03-22T07:15:13.530Z,22.97
2023-03-22T07:18:02.684Z,22.94
2023-03-22T07:20:38.154Z,22.93
2023-03-22T07:23:11.961Z,22.94
2023-03-22T07:25:50.328Z,22.99
2023-03-22T07:28:30.554Z,22.98
2023-03-22T07:31:08.340Z,22.83
2023-03-22T07:33:47.941Z,22.94
2023-03-22T07:36:18.448Z,23.05
2023-03-22T07:38:48.336Z,23.14
2023-03-22T07:41:25.196Z,23.25
2023-03-22T07:44:18.512Z,23.27
2023-03-22T07:47:04.791Z,23.11
2023-03-22T07:49:41.512Z,23.16
2023-03-22T07:52:15.452Z,23.19
2023-03-22T07:54:45.486Z,23.20
2023-03-22T07:57:15.141Z,23.23
2023-03-22T07:59:53.584Z,23.25
2023-03-22T08:02:25.861Z,23.25
2023-03-22T08:04:57.346Z,23.23
2023-03-22T08:07:48.115Z,23.27
2023-03-22T08:10:17.649Z,23.26
2023-03-22T08:12:50.125Z,23.27
2023-03-22T08:15:25.216Z,23.15
2023-03-22T08:17:59.036Z,23.14
2023-03-22T08:20:42.476Z,23.32
2023-03-22T08:23:17.977Z,23.37
2023-03-22T08:26:20.068Z,23.33
2023-03-22T08:28:49.560Z,23.12
2023-03-22T08:31:21.222Z,22.91
2023-03-22T08:33:52.003Z,22.76
2023-03-22T08:36:24.027Z,22.79
2023-03-22T08:39:03.072Z,22.72
2023-03-22T08:41:52.638Z,22.48
2023-03-22T08:44:23.285Z,22.56
2023-03-22T08:46:53.029Z,22.57
2023-03-22T08:49:23.187Z,22.68
2023-03-22T08:52:00.526Z,22.65
2023-03-22T08:54:54.475Z,22.51
2023-03-22T08:58:02.819Z,22.66
2023-03-22T09:00:52.884Z,22.69
2023-03-22T09:03:45.408Z,22.77
2023-03-22T09:06:15.895Z,22.71
2023-03-22T09:08:45.909Z,22.57
2023-03-22T09:11:18.103Z,22.90
2023-03-22T09:13:50.519Z,22.63
2023-03-22T09:16:21.255Z,22.80
2023-03-22T09:18:50.856Z,23.00
2023-03-22T09:21:23.369Z,22.99
2023-03-22T09:24:13.346Z,22.83
2023-03-22T09:26:47.805Z,22.76
2023-03-22T09:29:20.641Z,22.72
2023-03-22T09:31:50.180Z,22.71
2023-03-22T09:34:24.401Z,22.71
2023-03-22T09:36:55.713Z,22.68
2023-03-22T09:39:31.083Z,22.77
2023-03-22T09:42:07.298Z,22.83
2023-03-22T09:44:46.351Z,22.49
2023-03-22T09:47:47.780Z,22.61
2023-03-22T09:50:27.231Z,22.37
2023-03-22T09:52:56.959Z,22.36
2023-03-22T09:55:38.388Z,22.67
2023-03-22T09:58:16.586Z,22.84
2023-03-22T10:01:09.543Z,22.73
2023-03-22T10:03:54.568Z,22.75
2023-03-22T10:06:28.218Z,23.15
2023-03-22T10:09:15.631Z,23.22
2023-03-22T10:12:06.132Z,23.24
2023-03-22T10:14:43.600Z,23.19
2023-03-22T10:17:24.546Z,23.19
2023-03-22T10:20:23.069Z,23.34
2023-03-22T10:22:55.097Z,23.38
2023-03-22T10:25:26.861Z,23.45
2023-03-22T10:27:57.900Z,23.50
2023-03-22T10:30:35.447Z,23.63
2023-03-22T10:33:19.128Z,23.99
2023-03-22T10:35:49.849Z,24.88
2023-03-22T10:38:31.487Z,25.60
2023-03-22T10:41:03.525Z,25.56
2023-03-22T10:43:34.939Z,25.42
2023-03-22T10:46:08.775Z,25.24
2023-03-22T10:48:43.389Z,25.08
2023-03-22T10:51:32.244Z,24.85
2023-03-22T10:54:02.663Z,24.66
2023-03-22T10:56:32.993Z,24.63
2023-03-22T10:59:02.289Z,24.62
2023-03-22T11:01:42.633Z,24.82
2023-03-22T11:04:15.878Z,25.35
2023-03-22T11:06:56.449Z,26.34
2023-03-22T11:09:26.683Z,27.09
2023-03-22T11:11:58.968Z,28.23
2023-03-22T11:14:34.648Z,28.77
2023-03-22T11:17:15.677Z,29.25
2023-03-22T11:19:59.315Z,29.39
2023-03-22T11:22:44.040Z,30.15
2023-03-22T11:25:22.539Z,30.75
2023-03-22T11:28:13.906Z,31.37
2023-03-22T11:31:06.718Z,31.91
2023-03-22T11:33:37.390Z,30.79
2023-03-22T11:36:18.982Z,30.95
2023-03-22T11:38:48.961Z,30.57
2023-03-22T11:41:23.691Z,30.29
2023-03-22T11:43:59.638Z,30.82
2023-03-22T11:46:30.929Z,30.93
2023-03-22T11:49:04.272Z,31.37
2023-03-22T11:51:37.249Z,32.08
2023-03-22T11:54:12.089Z,32.47
2023-03-22T11:56:46.435Z,33.12
2023-03-22T11:59:24.341Z,33.92
2023-03-22T12:01:58.067Z,34.89
2023-03-22T12:04:31.044Z,35.20
2023-03-22T12:07:03.584Z,34.12
2023-03-22T12:09:38.493Z,32.91
2023-03-22T12:12:14.820Z,32.41
2023-03-22T12:14:55.807Z,33.02
2023-03-22T12:17:33.535Z,33.15
2023-03-22T12:20:21.105Z,34.19
2023-03-22T12:22:55.122Z,34.45
2023-03-22T12:25:34.641Z,34.20
2023-03-22T12:28:09.594Z,33.93
2023-03-22T12:30:46.172Z,33.45
2023-03-22T12:33:27.857Z,32.47
2023-03-22T12:36:00.129Z,32.79
2023-03-22T12:38:36.639Z,33.11
2023-03-22T12:41:12.438Z,33.17
2023-03-22T12:44:00.171Z,33.55
2023-03-22T12:46:46.333Z,34.57
2023-03-22T12:49:43.441Z,35.16
2023-03-22T12:52:49.909Z,35.99
2023-03-22T12:55:43.358Z,35.77
2023-03-22T12:58:25.425Z,36.09
2023-03-22T13:01:07.991Z,36.67
2023-03-22T13:03:46.064Z,37.32
2023-03-22T13:06:54.906Z,37.76
2023-03-22T13:09:41.943Z,38.16
2023-03-22T13:12:20.482Z,37.91
2023-03-22T13:14:51.253Z,37.28
2023-03-22T13:17:24.709Z,38.24
2023-03-22T13:20:12.985Z,39.02
2023-03-22T13:22:43.376Z,38.69
2023-03-22T13:25:17.929Z,38.34
2023-03-22T13:27:47.747Z,37.10
2023-03-22T13:30:23.244Z,37.03
2023-03-22T13:32:56.524Z,36.75
2023-03-22T13:35:29.333Z,35.79
2023-03-22T13:38:05.479Z,37.23
2023-03-22T13:40:41.244Z,37.25
2023-03-22T13:43:23.156Z,38.16
2023-03-22T13:46:20.923Z,37.18
2023-03-22T13:48:51.712Z,37.85
2023-03-22T13:51:24.578Z,37.05
2023-03-22T13:54:17.330Z,36.81
2023-03-22T13:57:02.106Z,35.48
2023-03-22T14:00:12.210Z,35.23
2023-03-22T14:02:46.184Z,35.94
2023-03-22T14:05:24.870Z,36.41
2023-03-22T14:08:00.504Z,36.50
2023-03-22T14:10:47.232Z,36.26
2023-03-22T14:13:40.690Z,37.16
2023-03-22T14:16:19.643Z,37.51
2023-03-22T14:18:50.944Z,38.55
2023-03-22T14:21:35.607Z,39.79
